Terminal Aerodrome Forecast
Issued by NWS

Home | Current Version | Previous Version | Text Only | Print | Product List | Glossary On
Versions: 1 2 3 4 5 6 7 8 9 10 11 12 13 14 15 16 17 18 19 20 21
000
FTUS43 KILX 301700
TAFDEC
TAF
KDEC 301740Z 3018/0118 05008KT P6SM SCT020
     FM010000 07005KT P6SM SCT250
     FM010900 10004KT 4SM BR SCT250
      TEMPO 0109/0113 2SM BR
     FM011400 14008KT P6SM SCT045=

USA.gov is the U.S. government's official web portal to all federal, state and local government web resources and services.